Time;durP1;ratioP1;P1;durP2;ratioP2;P2;SDS_P1;SDS_P2;PMS_P1;PMS_P2;Temp;Humidity;BMP_temperature;BMP_pressure;BME280_temperature;BME280_humidity;BME280_pressure;Samples;Min_cycle;Max_cycle;Signal;HPM_P1;HPM_P2
2022/05/17 00:02:15;;;;;;;5.43;3.27;;;15.90;99.90;;;;;;5055197;28;20448;-87
2022/05/17 00:04:41;;;;;;;5.33;2.53;;;15.80;99.90;;;;;;5055203;28;20624;-87
2022/05/17 00:07:06;;;;;;;7.73;3.13;;;15.80;99.90;;;;;;5054843;28;20680;-87
2022/05/17 00:09:33;;;;;;;5.90;3.20;;;15.80;99.90;;;;;;5055031;28;20185;-87
2022/05/17 00:11:59;;;;;;;4.83;3.20;;;15.80;99.90;;;;;;5053670;28;20537;-88
2022/05/17 00:14:25;;;;;;;4.00;2.87;;;15.70;99.90;;;;;;5054801;28;20514;-88
2022/05/17 00:16:51;;;;;;;5.90;3.27;;;15.80;99.90;;;;;;5053424;28;20458;-87
2022/05/17 00:19:20;;;;;;;4.33;3.57;;;15.70;99.90;;;;;;5054807;28;20989;-86
2022/05/17 00:21:46;;;;;;;6.33;2.73;;;15.70;99.90;;;;;;5053207;28;20226;-86
2022/05/17 00:24:12;;;;;;;5.17;3.17;;;15.70;99.90;;;;;;5054809;28;20513;-85
2022/05/17 00:26:39;;;;;;;4.23;2.37;;;15.60;99.90;;;;;;5054653;28;20436;-87
2022/05/17 00:29:05;;;;;;;6.63;2.83;;;15.60;99.90;;;;;;5054620;28;20421;-86
2022/05/17 00:31:32;;;;;;;5.70;3.37;;;15.60;99.90;;;;;;5054592;28;20418;-87
2022/05/17 00:33:57;;;;;;;6.77;3.70;;;15.60;99.90;;;;;;5054694;28;20175;-87
2022/05/17 00:36:23;;;;;;;6.07;2.20;;;15.60;99.90;;;;;;5052904;28;20438;-85
2022/05/17 00:38:49;;;;;;;6.07;2.33;;;15.60;99.90;;;;;;5054474;28;20995;-88
2022/05/17 00:41:15;;;;;;;6.77;3.43;;;15.50;99.90;;;;;;5053080;28;20463;-87
2022/05/17 00:46:42;;;;;;;6.13;2.37;;;15.50;99.90;;;;;;5054543;28;20228;-87
2022/05/17 00:49:11;;;;;;;5.60;3.57;;;15.50;99.90;;;;;;5054275;28;20766;-86
2022/05/17 00:51:39;;;;;;;9.60;4.03;;;15.50;99.90;;;;;;5053820;28;20417;-87
2022/05/17 00:54:12;;;;;;;4.70;2.53;;;15.40;99.90;;;;;;5054049;28;20412;-87
2022/05/17 00:57:05;;;;;;;8.43;3.30;;;15.30;99.90;;;;;;5054115;28;20854;-88
2022/05/17 00:59:31;;;;;;;6.50;3.13;;;15.30;99.90;;;;;;5037795;28;20473;-88
2022/05/17 01:01:56;;;;;;;6.97;3.37;;;15.20;99.90;;;;;;5053989;28;20413;-87
2022/05/17 01:04:24;;;;;;;7.17;3.50;;;15.20;99.90;;;;;;5053982;28;20413;-86
2022/05/17 01:07:05;;;;;;;5.40;2.80;;;15.20;99.90;;;;;;5053909;28;20172;-86
2022/05/17 01:09:30;;;;;;;6.33;2.87;;;15.60;99.90;;;;;;5053963;28;20765;-86
2022/05/17 01:11:56;;;;;;;8.23;2.90;;;15.20;99.90;;;;;;5052614;28;20413;-90
2022/05/17 01:17:06;;;;;;;6.40;2.43;;;14.90;99.90;;;;;;5054231;28;20313;-89
2022/05/17 01:19:32;;;;;;;5.33;2.77;;;14.90;99.90;;;;;;5053965;28;20547;-90
2022/05/17 01:21:57;;;;;;;6.40;3.50;;;14.70;99.90;;;;;;5052658;28;20179;-88
2022/05/17 01:24:25;;;;;;;7.20;2.87;;;14.70;99.90;;;;;;5054052;28;20180;-88
2022/05/17 01:26:59;;;;;;;5.67;3.03;;;14.70;99.90;;;;;;5054002;28;20529;-88
2022/05/17 01:29:25;;;;;;;5.47;2.40;;;14.70;99.90;;;;;;5052672;28;20449;-89
2022/05/17 01:31:51;;;;;;;5.37;3.30;;;14.60;99.90;;;;;;5053886;28;20768;-90
2022/05/17 01:34:17;;;;;;;5.27;2.00;;;14.70;99.90;;;;;;5054390;28;20261;-93
2022/05/17 01:36:45;;;;;;;10.80;2.77;;;14.70;99.90;;;;;;5053060;28;21052;-92
2022/05/17 01:39:11;;;;;;;4.03;2.70;;;14.80;99.90;;;;;;5054224;28;20195;-92
2022/05/17 01:41:37;;;;;;;4.13;2.57;;;14.80;99.90;;;;;;5053054;28;20447;-93
2022/05/17 01:44:03;;;;;;;7.63;3.37;;;14.80;99.90;;;;;;5054216;28;20466;-92
2022/05/17 01:46:38;;;;;;;5.37;3.20;;;14.80;99.90;;;;;;5052264;28;20174;-92
2022/05/17 01:49:04;;;;;;;6.80;2.97;;;14.70;99.90;;;;;;5053844;28;20419;-92
2022/05/17 01:51:29;;;;;;;3.87;1.97;;;14.70;99.90;;;;;;5053886;28;20492;-94
2022/05/17 01:53:55;;;;;;;4.57;2.57;;;14.70;99.90;;;;;;5054009;28;20181;-91
2022/05/17 01:56:20;;;;;;;7.53;3.00;;;14.70;99.90;;;;;;5052766;28;20174;-90
2022/05/17 01:58:46;;;;;;;4.83;3.20;;;14.70;99.90;;;;;;5053461;28;20569;-88
2022/05/17 02:01:11;;;;;;;4.90;3.00;;;14.70;99.90;;;;;;5053587;28;20174;-90
2022/05/17 02:03:38;;;;;;;6.87;2.67;;;14.80;99.90;;;;;;5053413;28;20249;-87
2022/05/17 02:06:03;;;;;;;4.00;2.10;;;14.80;99.90;;;;;;5051874;28;20424;-88
2022/05/17 02:08:29;;;;;;;8.00;3.30;;;14.80;99.90;;;;;;5052393;28;20511;-90
2022/05/17 02:10:55;;;;;;;4.97;2.90;;;14.70;99.90;;;;;;5053554;28;20170;-90
2022/05/17 02:13:21;;;;;;;4.00;2.70;;;14.80;99.90;;;;;;5053242;28;20988;-88
2022/05/17 02:15:46;;;;;;;4.93;3.13;;;14.70;99.90;;;;;;5053384;28;20626;-91
2022/05/17 02:18:12;;;;;;;6.33;2.50;;;14.70;99.90;;;;;;5052566;28;20615;-91
2022/05/17 02:20:37;;;;;;;5.80;2.43;;;14.80;99.90;;;;;;5053037;28;20213;-91
2022/05/17 02:23:03;;;;;;;3.70;2.60;;;14.70;99.90;;;;;;5052333;28;20169;-89
2022/05/17 02:25:29;;;;;;;8.07;3.27;;;14.70;99.90;;;;;;5052364;28;20182;-90
2022/05/17 02:27:54;;;;;;;6.30;2.50;;;14.60;99.90;;;;;;5052342;28;20175;-88
2022/05/17 02:30:20;;;;;;;6.20;3.33;;;14.60;99.90;;;;;;5053386;28;20177;-88
2022/05/17 02:32:46;;;;;;;5.97;2.30;;;14.70;99.90;;;;;;5052109;28;20173;-89
2022/05/17 02:35:13;;;;;;;7.13;4.63;;;14.70;99.90;;;;;;5051689;28;20422;-89
2022/05/17 02:37:38;;;;;;;6.03;3.13;;;14.60;99.90;;;;;;5053343;28;20168;-88
2022/05/17 02:40:05;;;;;;;4.87;2.60;;;14.60;99.90;;;;;;5053355;28;20459;-91
2022/05/17 02:42:30;;;;;;;4.40;3.37;;;14.60;99.90;;;;;;5053146;28;20190;-90
2022/05/17 02:44:55;;;;;;;4.40;2.90;;;14.60;99.90;;;;;;5051891;28;20412;-88
2022/05/17 02:47:21;;;;;;;5.03;2.83;;;14.50;99.90;;;;;;5051704;28;20220;-89
2022/05/17 02:49:47;;;;;;;9.30;2.70;;;14.30;99.90;;;;;;5051636;28;20176;-90
2022/05/17 02:52:13;;;;;;;5.70;2.40;;;14.40;99.90;;;;;;5052705;28;20166;-89
2022/05/17 02:54:39;;;;;;;6.90;3.20;;;14.40;99.90;;;;;;5053131;28;20176;-89
2022/05/17 02:57:06;;;;;;;7.40;4.00;;;14.30;99.90;;;;;;5051763;28;21143;-90
2022/05/17 02:59:31;;;;;;;4.37;2.57;;;14.40;99.90;;;;;;5055154;28;20463;-89
2022/05/17 03:01:57;;;;;;;4.27;2.97;;;14.40;99.90;;;;;;5056708;28;20465;-88
2022/05/17 03:04:23;;;;;;;7.53;3.37;;;14.30;99.90;;;;;;5055419;28;20173;-88
2022/05/17 03:06:48;;;;;;;5.23;2.40;;;14.40;99.90;;;;;;5056346;28;20184;-88
2022/05/17 03:09:14;;;;;;;5.00;2.97;;;14.30;99.90;;;;;;5056436;28;20170;-88
2022/05/17 03:11:42;;;;;;;4.83;2.20;;;14.30;99.90;;;;;;5055096;28;20173;-88
2022/05/17 03:14:08;;;;;;;4.90;4.03;;;14.30;99.90;;;;;;5056279;28;20166;-88
2022/05/17 03:16:34;;;;;;;9.17;3.30;;;14.30;99.90;;;;;;5054560;28;20470;-88
2022/05/17 03:19:00;;;;;;;8.00;3.30;;;14.20;99.90;;;;;;5054844;28;20455;-87
2022/05/17 03:21:26;;;;;;;5.00;2.60;;;14.30;99.90;;;;;;5055639;28;20437;-88
2022/05/17 03:23:51;;;;;;;6.47;4.10;;;14.30;99.90;;;;;;5054808;28;20428;-88
2022/05/17 03:26:17;;;;;;;8.50;3.50;;;14.30;99.90;;;;;;5055894;28;20215;-88
2022/05/17 03:28:43;;;;;;;6.63;3.20;;;14.30;99.90;;;;;;5055906;28;20231;-87
2022/05/17 03:31:09;;;;;;;6.17;3.00;;;14.30;99.90;;;;;;5054670;28;20567;-87
2022/05/17 03:33:35;;;;;;;4.70;3.03;;;14.30;99.90;;;;;;5055819;28;20200;-87
2022/05/17 03:36:00;;;;;;;6.83;3.57;;;14.30;99.90;;;;;;5055481;28;20436;-88
2022/05/17 03:38:26;;;;;;;8.67;3.90;;;14.20;99.90;;;;;;5056121;28;20166;-89
2022/05/17 03:40:52;;;;;;;5.50;3.80;;;14.30;99.90;;;;;;5055970;28;20263;-88
2022/05/17 03:43:19;;;;;;;6.60;2.43;;;14.30;99.90;;;;;;5056129;28;20166;-87
2022/05/17 03:45:45;;;;;;;6.37;3.87;;;14.20;99.90;;;;;;5055791;28;20473;-88
2022/05/17 03:48:10;;;;;;;5.30;3.27;;;14.30;99.90;;;;;;5054562;28;20499;-88
2022/05/17 03:50:36;;;;;;;3.93;3.50;;;14.30;99.90;;;;;;5055468;28;20182;-89
2022/05/17 03:53:02;;;;;;;6.97;4.33;;;14.30;99.90;;;;;;5055898;28;20174;-87
2022/05/17 03:55:28;;;;;;;5.80;3.20;;;14.30;99.90;;;;;;5054773;28;20641;-88
2022/05/17 03:57:53;;;;;;;7.70;4.50;;;14.30;99.90;;;;;;5055740;28;20416;-87
2022/05/17 04:00:19;;;;;;;8.60;3.30;;;14.20;99.90;;;;;;5055643;28;20213;-88
2022/05/17 04:02:44;;;;;;;7.60;2.80;;;14.20;99.90;;;;;;5054613;28;20177;-90
2022/05/17 04:05:10;;;;;;;4.10;3.00;;;14.20;99.90;;;;;;5055495;28;20420;-90
2022/05/17 04:07:36;;;;;;;5.33;2.90;;;14.20;99.90;;;;;;5054542;28;20174;-89
2022/05/17 04:10:03;;;;;;;5.10;2.73;;;14.20;99.90;;;;;;5055261;28;20173;-90
2022/05/17 04:12:29;;;;;;;7.70;3.50;;;14.30;99.90;;;;;;5071130;28;20424;-90
2022/05/17 04:14:54;;;;;;;6.37;3.40;;;14.20;99.90;;;;;;5054309;28;20420;-88
2022/05/17 04:17:20;;;;;;;6.53;3.77;;;14.30;99.90;;;;;;5053916;28;20228;-89
2022/05/17 04:19:45;;;;;;;5.43;3.87;;;14.30;99.90;;;;;;5055028;28;20700;-90
2022/05/17 04:22:11;;;;;;;6.87;3.60;;;14.30;99.90;;;;;;5055372;28;20663;-89
2022/05/17 04:24:41;;;;;;;5.37;4.20;;;14.30;99.90;;;;;;5053916;28;20286;-88
2022/05/17 04:27:07;;;;;;;7.87;4.23;;;14.40;99.90;;;;;;5053728;28;20181;-88
2022/05/17 04:29:32;;;;;;;7.50;4.10;;;14.40;99.90;;;;;;5055017;28;20411;-88
2022/05/17 04:31:58;;;;;;;4.90;3.37;;;14.30;99.90;;;;;;5054836;28;20439;-88
2022/05/17 04:34:23;;;;;;;4.87;4.23;;;14.40;99.90;;;;;;5054784;28;20535;-86
2022/05/17 04:36:49;;;;;;;7.63;4.23;;;14.30;99.90;;;;;;5054431;28;20193;-86
2022/05/17 04:39:14;;;;;;;8.80;4.90;;;14.40;99.90;;;;;;5054480;28;20199;-87
2022/05/17 04:41:40;;;;;;;4.40;3.67;;;14.30;99.90;;;;;;5053291;28;20173;-88
2022/05/17 04:44:05;;;;;;;5.30;3.63;;;14.40;99.90;;;;;;5054680;28;20174;-86
2022/05/17 04:46:31;;;;;;;5.90;4.17;;;14.40;99.90;;;;;;5054443;28;20166;-86
2022/05/17 04:48:56;;;;;;;5.17;4.10;;;14.40;99.90;;;;;;5053127;28;20665;-87
2022/05/17 04:51:22;;;;;;;5.20;3.83;;;14.30;99.90;;;;;;5054044;28;20683;-87
2022/05/17 04:53:47;;;;;;;5.90;4.40;;;14.30;99.90;;;;;;5053001;28;20695;-88
2022/05/17 04:56:15;;;;;;;6.20;4.60;;;14.30;99.90;;;;;;5052778;28;20175;-87
2022/05/17 04:58:40;;;;;;;9.03;4.20;;;14.40;99.90;;;;;;5054164;28;20234;-87
2022/05/17 05:01:06;;;;;;;9.47;4.10;;;14.30;99.90;;;;;;5054197;28;20424;-88
2022/05/17 05:03:32;;;;;;;6.90;4.67;;;14.40;99.90;;;;;;5052629;28;20687;-86
2022/05/17 05:05:57;;;;;;;6.73;4.03;;;14.40;99.90;;;;;;5053700;28;20173;-86
2022/05/17 05:08:23;;;;;;;6.80;4.43;;;14.40;99.90;;;;;;5054002;28;20410;-89
2022/05/17 05:10:49;;;;;;;9.60;5.43;;;14.40;99.90;;;;;;5053746;28;20188;-88
2022/05/17 05:13:19;;;;;;;8.27;4.67;;;14.30;99.90;;;;;;5052877;28;20405;-88
2022/05/17 05:15:45;;;;;;;8.10;4.97;;;14.30;99.90;;;;;;5051085;28;20697;-89
2022/05/17 05:18:11;;;;;;;6.10;4.07;;;14.30;99.90;;;;;;5052617;28;20413;-88
2022/05/17 05:20:37;;;;;;;9.83;4.43;;;14.20;99.90;;;;;;5068620;28;20641;-88
2022/05/17 05:23:02;;;;;;;7.57;4.57;;;14.20;99.90;;;;;;5052628;28;20247;-88
2022/05/17 05:25:28;;;;;;;8.40;5.37;;;14.50;99.90;;;;;;5052860;28;20482;-88
2022/05/17 05:27:54;;;;;;;8.27;4.97;;;14.40;99.90;;;;;;5054434;28;20412;-88
2022/05/17 05:30:22;;;;;;;6.77;4.77;;;14.40;99.90;;;;;;5053860;28;20193;-88
2022/05/17 05:32:48;;;;;;;11.37;4.90;;;14.40;99.90;;;;;;5053868;28;20176;-87
2022/05/17 05:35:15;;;;;;;6.60;4.93;;;14.40;99.90;;;;;;5053452;28;20412;-89
2022/05/17 05:37:41;;;;;;;7.97;5.13;;;14.40;99.90;;;;;;5053747;28;20675;-88
2022/05/17 05:40:08;;;;;;;6.33;4.07;;;14.40;99.90;;;;;;5052466;28;20471;-86
2022/05/17 05:42:33;;;;;;;8.07;5.10;;;14.30;99.90;;;;;;5052650;28;20672;-88
2022/05/17 05:44:59;;;;;;;8.50;5.43;;;14.40;99.90;;;;;;5059979;28;20433;-84
2022/05/17 05:47:25;;;;;;;8.37;4.73;;;14.40;99.90;;;;;;5066412;28;20177;-84
2022/05/17 05:49:50;;;;;;;7.47;5.17;;;14.40;99.90;;;;;;5075866;28;20161;-86
2022/05/17 05:52:16;;;;;;;6.97;4.67;;;14.50;99.90;;;;;;5076987;28;20182;-87
2022/05/17 05:54:41;;;;;;;8.00;5.03;;;14.50;99.90;;;;;;5075559;28;20174;-87
2022/05/17 05:57:08;;;;;;;7.57;5.40;;;14.50;99.90;;;;;;5054957;28;20416;-88
2022/05/17 05:59:33;;;;;;;14.40;5.00;;;14.50;99.90;;;;;;5053879;28;20204;-88
2022/05/17 06:01:59;;;;;;;12.87;5.20;;;14.50;99.90;;;;;;5052278;28;20996;-87
2022/05/17 06:04:27;;;;;;;6.50;4.50;;;14.50;99.90;;;;;;5053473;28;20174;-88
2022/05/17 06:06:54;;;;;;;11.90;6.17;;;14.50;99.90;;;;;;5053278;28;20172;-88
2022/05/17 06:09:19;;;;;;;8.47;4.80;;;14.50;99.90;;;;;;5052281;28;20506;-88
2022/05/17 06:11:45;;;;;;;8.90;5.87;;;14.40;99.90;;;;;;5053465;28;20424;-87
2022/05/17 06:14:11;;;;;;;9.87;5.20;;;14.50;99.90;;;;;;5053289;28;20169;-88
2022/05/17 06:16:36;;;;;;;7.43;4.53;;;14.50;99.90;;;;;;5053077;28;20213;-86
2022/05/17 06:19:02;;;;;;;6.93;5.17;;;14.50;99.90;;;;;;5053148;28;20810;-88
2022/05/17 06:21:28;;;;;;;6.10;5.07;;;14.50;99.90;;;;;;5052153;28;20184;-88
2022/05/17 06:23:53;;;;;;;6.37;5.63;;;14.50;99.90;;;;;;5052157;28;20280;-88
2022/05/17 06:26:18;;;;;;;7.20;5.07;;;14.60;99.90;;;;;;5052035;28;20201;-88
2022/05/17 06:28:44;;;;;;;6.47;4.77;;;14.60;99.90;;;;;;5053206;28;20540;-89
2022/05/17 06:31:10;;;;;;;8.20;6.17;;;14.70;99.90;;;;;;5053142;28;20650;-86
2022/05/17 06:33:39;;;;;;;10.07;5.47;;;14.70;99.90;;;;;;5057135;28;20176;-90
2022/05/17 06:36:05;;;;;;;7.73;5.90;;;14.70;99.90;;;;;;5055601;28;20192;-86
2022/05/17 06:38:31;;;;;;;7.07;5.67;;;14.70;99.90;;;;;;5057199;28;20402;-87
2022/05/17 06:40:57;;;;;;;6.13;4.80;;;14.80;99.90;;;;;;5057117;28;20466;-86
2022/05/17 06:43:23;;;;;;;9.97;5.47;;;14.80;99.90;;;;;;5057044;28;20416;-85
2022/05/17 06:45:49;;;;;;;7.67;5.80;;;14.80;99.90;;;;;;5055600;28;20173;-87
2022/05/17 06:48:14;;;;;;;10.07;5.33;;;14.90;99.90;;;;;;5056123;28;20262;-87
2022/05/17 06:50:40;;;;;;;7.50;5.13;;;14.70;99.90;;;;;;5058346;28;20841;-87
2022/05/17 06:53:13;;;;;;;8.57;5.90;;;14.70;99.90;;;;;;5058207;28;20180;-89
2022/05/17 06:55:39;;;;;;;7.50;6.20;;;14.60;99.90;;;;;;5057243;28;20169;-87
2022/05/17 06:58:05;;;;;;;8.80;5.90;;;14.70;99.90;;;;;;5056399;28;20420;-88
2022/05/17 07:00:34;;;;;;;7.60;6.03;;;14.60;99.90;;;;;;5057013;28;20658;-90
2022/05/17 07:03:00;;;;;;;9.00;6.10;;;14.70;99.90;;;;;;5057893;28;20889;-88
2022/05/17 07:05:27;;;;;;;9.50;6.33;;;14.60;99.90;;;;;;5057819;28;20417;-89
2022/05/17 07:07:53;;;;;;;11.07;6.67;;;14.70;99.90;;;;;;5058076;28;20463;-87
2022/05/17 07:13:09;;;;;;;8.27;7.10;;;14.70;99.90;;;;;;5056457;28;20407;-88
2022/05/17 07:15:47;;;;;;;9.97;7.60;;;14.80;99.90;;;;;;5055828;28;20428;-91
2022/05/17 07:18:15;;;;;;;8.07;7.27;;;14.80;99.90;;;;;;5057694;28;20455;-89
2022/05/17 07:20:42;;;;;;;10.93;7.90;;;14.80;99.90;;;;;;5055262;28;20528;-88
2022/05/17 07:23:11;;;;;;;9.93;7.00;;;14.90;99.90;;;;;;5055210;28;20498;-92
2022/05/17 07:25:40;;;;;;;12.97;7.50;;;14.90;99.90;;;;;;5056341;28;20519;-88
2022/05/17 07:28:07;;;;;;;11.97;7.87;;;14.90;99.90;;;;;;5056765;28;20404;-91
2022/05/17 07:30:33;;;;;;;8.37;7.37;;;14.90;99.90;;;;;;5056895;28;20917;-87
2022/05/17 07:32:58;;;;;;;9.93;7.80;;;14.90;99.90;;;;;;5055039;28;20514;-89
2022/05/17 07:35:24;;;;;;;9.90;7.60;;;14.90;99.90;;;;;;5054685;28;20182;-90
2022/05/17 07:37:50;;;;;;;10.00;8.60;;;15.00;99.90;;;;;;5055984;28;20215;-89
2022/05/17 07:40:16;;;;;;;11.10;7.77;;;15.10;99.90;;;;;;5056170;28;20215;-89
2022/05/17 07:42:42;;;;;;;11.93;7.93;;;15.00;99.90;;;;;;5054698;28;20547;-89
2022/05/17 07:45:09;;;;;;;8.27;5.90;;;15.10;99.90;;;;;;5054341;28;20430;-89
2022/05/17 07:47:35;;;;;;;10.13;7.67;;;15.20;99.90;;;;;;5054812;28;20175;-90
2022/05/17 07:50:00;;;;;;;12.43;8.33;;;15.30;99.90;;;;;;5056243;28;20520;-88
2022/05/17 07:52:26;;;;;;;9.30;8.10;;;15.50;99.90;;;;;;5055939;28;20175;-90
2022/05/17 07:54:52;;;;;;;12.83;9.20;;;15.70;99.90;;;;;;5056153;28;20167;-89
2022/05/17 07:57:19;;;;;;;9.20;8.30;;;15.80;99.90;;;;;;5055183;28;20426;-90
2022/05/17 07:59:45;;;;;;;9.50;8.50;;;16.00;99.90;;;;;;5055941;28;20207;-90
2022/05/17 08:02:11;;;;;;;12.63;10.03;;;16.10;99.90;;;;;;5056072;28;20419;-91
2022/05/17 08:04:36;;;;;;;10.50;8.83;;;16.30;99.90;;;;;;5055170;28;20328;-92
2022/05/17 08:07:02;;;;;;;10.93;9.30;;;16.50;99.90;;;;;;5055191;28;20183;-92
2022/05/17 08:09:27;;;;;;;12.30;9.30;;;16.80;99.90;;;;;;5055189;28;20537;-93
2022/05/17 08:11:53;;;;;;;11.33;8.87;;;16.90;99.90;;;;;;5056446;28;20223;-93
2022/05/17 08:14:19;;;;;;;12.73;8.40;;;17.20;99.90;;;;;;5055422;28;20167;-92
2022/05/17 08:16:45;;;;;;;14.93;11.00;;;17.70;99.90;;;;;;5055234;28;20292;-92
2022/05/17 08:19:10;;;;;;;13.27;10.87;;;18.10;99.90;;;;;;5055827;28;20443;-93
2022/05/17 08:21:37;;;;;;;12.90;9.90;;;18.30;99.90;;;;;;5056635;28;20633;-95
2022/05/17 08:24:03;;;;;;;11.87;10.60;;;18.00;99.90;;;;;;5055365;28;20169;-93
2022/05/17 08:29:13;;;;;;;14.73;10.57;;;17.40;99.90;;;;;;5055367;28;20451;-89
2022/05/17 08:31:39;;;;;;;11.80;10.60;;;17.20;99.90;;;;;;5056481;28;20417;-91
2022/05/17 08:34:06;;;;;;;15.50;10.83;;;17.10;99.90;;;;;;5054525;28;20473;-92
2022/05/17 08:36:32;;;;;;;14.30;10.27;;;17.10;99.90;;;;;;5055683;28;20166;-91
2022/05/17 08:38:58;;;;;;;14.20;12.43;;;17.30;99.90;;;;;;5054540;28;20414;-91
2022/05/17 08:41:24;;;;;;;13.40;11.40;;;17.10;99.90;;;;;;5054341;28;20418;-90
2022/05/17 08:44:04;;;;;;;12.30;10.97;;;17.00;99.90;;;;;;5071513;28;20168;-92
2022/05/17 08:46:48;;;;;;;12.87;11.47;;;16.90;99.90;;;;;;5054319;28;20832;-91
2022/05/17 08:49:23;;;;;;;16.90;12.37;;;17.10;99.90;;;;;;5070623;28;20419;-91
2022/05/17 08:51:54;;;;;;;14.47;11.27;;;17.40;99.90;;;;;;5054370;28;20426;-91
2022/05/17 08:54:27;;;;;;;15.50;11.27;;;18.30;99.90;;;;;;5070859;28;20495;-92
2022/05/17 08:57:31;;;;;;;12.33;10.93;;;18.90;99.90;;;;;;5055851;28;20425;-90
2022/05/17 09:00:04;;;;;;;8.80;8.00;;;20.70;99.90;;;;;;5053107;28;21093;-89
2022/05/17 09:02:45;;;;;;;10.90;9.37;;;21.10;99.90;;;;;;5053646;28;20430;-89
2022/05/17 09:05:29;;;;;;;9.93;8.67;;;23.40;1.00;;;;;;5054850;28;20423;-92
2022/05/17 09:08:12;;;;;;;9.30;8.40;;;24.60;1.00;;;;;;5070680;28;20780;-90
2022/05/17 09:10:41;;;;;;;8.73;7.93;;;24.80;1.00;;;;;;5055697;28;20487;-91
2022/05/17 09:13:15;;;;;;;9.80;8.10;;;22.50;99.90;;;;;;5055382;28;20917;-88
2022/05/17 09:15:43;;;;;;;7.63;6.27;;;21.30;18.80;;;;;;5054544;28;20806;-88
2022/05/17 09:18:14;;;;;;;7.60;6.67;;;20.80;99.90;;;;;;5052948;28;20424;-88
2022/05/17 09:20:40;;;;;;;6.23;5.20;;;20.40;99.90;;;;;;5052511;28;20472;-89
2022/05/17 09:23:06;;;;;;;6.97;4.77;;;19.90;99.90;;;;;;5052854;28;20462;-87
2022/05/17 09:25:46;;;;;;;5.20;3.97;;;19.70;99.90;;;;;;5054585;28;20166;-91
2022/05/17 09:28:17;;;;;;;5.00;3.60;;;20.60;99.90;;;;;;5054241;28;20408;-89
2022/05/17 09:30:42;;;;;;;3.47;2.93;;;20.50;99.90;;;;;;5054860;28;20407;-89
2022/05/17 09:33:19;;;;;;;3.93;2.73;;;22.90;1.00;;;;;;5054481;28;20412;-87
2022/05/17 09:35:57;;;;;;;3.30;2.40;;;23.50;99.90;;;;;;5053971;28;20177;-89
2022/05/17 09:38:23;;;;;;;2.97;1.80;;;23.10;99.90;;;;;;5054490;28;20415;-89
2022/05/17 09:40:51;;;;;;;3.10;2.27;;;22.30;1.00;;;;;;5053861;28;20471;-90
2022/05/17 09:43:17;;;;;;;3.17;2.20;;;21.70;1.00;;;;;;5052722;28;20407;-89
2022/05/17 09:45:49;;;;;;;3.33;2.47;;;21.00;99.90;;;;;;5052830;28;20424;-88
2022/05/17 09:54:43;;;;;;;3.37;1.80;;;20.40;99.90;;;;;;5054361;28;20400;-90
2022/05/17 09:57:24;;;;;;;2.20;1.93;;;21.30;99.90;;;;;;5054312;28;20404;-90
2022/05/17 10:00:16;;;;;;;3.67;2.27;;;21.90;1.00;;;;;;5052624;28;20557;-90
2022/05/17 10:02:53;;;;;;;2.50;2.30;;;21.70;1.00;;;;;;5053420;28;20420;-90
2022/05/17 10:05:47;;;;;;;4.40;2.37;;;21.20;91.40;;;;;;5069076;28;20819;-90
2022/05/17 10:08:30;;;;;;;3.63;2.13;;;21.30;1.00;;;;;;5074355;28;20408;-85
2022/05/17 10:11:22;;;;;;;5.70;2.63;;;22.90;1.00;;;;;;5061895;28;20420;-89
2022/05/17 10:14:01;;;;;;;2.87;2.57;;;25.40;99.90;;;;;;5054847;28;20799;-89
2022/05/17 10:16:51;;;;;;;2.40;1.83;;;26.30;1.00;;;;;;5053588;28;20466;-94
2022/05/17 10:19:37;;;;;;;3.73;2.37;;;26.90;99.90;;;;;;5051824;28;20800;-93
2022/05/17 10:22:19;;;;;;;1.90;1.60;;;27.10;99.90;;;;;;5069463;28;20795;-95
2022/05/17 10:25:01;;;;;;;2.20;1.63;;;26.60;99.90;;;;;;5053736;28;20503;-91
2022/05/17 10:27:37;;;;;;;2.37;1.87;;;24.60;1.00;;;;;;5052483;28;20431;-94
2022/05/17 10:30:13;;;;;;;2.27;1.63;;;23.40;23.00;;;;;;5052672;28;20438;-93
2022/05/17 10:32:49;;;;;;;2.20;1.13;;;23.10;99.90;;;;;;5053629;28;20443;-89
2022/05/17 10:35:34;;;;;;;2.50;1.67;;;23.20;1.00;;;;;;5069019;28;20931;-92
2022/05/17 10:38:08;;;;;;;2.13;1.20;;;22.20;99.90;;;;;;5053749;28;20470;-92
2022/05/17 10:40:43;;;;;;;2.43;1.90;;;21.20;1.00;;;;;;5053689;28;20890;-88
2022/05/17 10:43:16;;;;;;;3.30;1.93;;;20.80;1.00;;;;;;5053586;28;20442;-91
2022/05/17 10:45:46;;;;;;;2.50;2.03;;;20.40;42.00;;;;;;5052508;28;20503;-92
2022/05/17 10:48:29;;;;;;;5.27;2.43;;;20.10;99.90;;;;;;5053665;28;20413;-91
2022/05/17 10:51:20;;;;;;;3.20;3.00;;;19.90;99.90;;;;;;5053224;28;20846;-92
2022/05/17 10:54:12;;;;;;;3.83;3.10;;;19.50;99.90;;;;;;5068871;28;20426;-87
2022/05/17 10:56:48;;;;;;;3.20;2.80;;;19.50;99.90;;;;;;5053350;28;20994;-88
2022/05/17 10:59:37;;;;;;;3.50;3.20;;;19.40;99.90;;;;;;5053335;28;20445;-91
2022/05/17 11:02:22;;;;;;;3.37;3.00;;;19.20;99.90;;;;;;5033221;28;20766;-86
2022/05/17 11:05:08;;;;;;;3.57;2.70;;;19.30;99.90;;;;;;5051141;28;20475;-88
2022/05/17 11:07:55;;;;;;;3.43;2.40;;;19.30;99.90;;;;;;5052781;28;20413;-88
2022/05/17 11:10:48;;;;;;;3.60;2.93;;;19.30;99.90;;;;;;5069168;28;20482;-88
2022/05/17 11:13:30;;;;;;;3.27;2.50;;;19.40;99.90;;;;;;5060684;28;20803;-87
2022/05/17 11:16:12;;;;;;;4.47;2.53;;;19.40;99.90;;;;;;5060540;28;20467;-87
2022/05/17 11:18:45;;;;;;;3.07;2.47;;;19.40;99.90;;;;;;5061311;28;20446;-87
2022/05/17 11:21:25;;;;;;;2.30;2.10;;;19.20;99.90;;;;;;5065340;28;20472;-87
2022/05/17 11:24:20;;;;;;;2.60;2.40;;;19.00;99.90;;;;;;5066280;28;20414;-87
2022/05/17 11:26:45;;;;;;;3.30;2.77;;;19.10;99.90;;;;;;5065606;28;20414;-88
2022/05/17 11:29:22;;;;;;;3.17;2.03;;;19.00;99.90;;;;;;5067123;28;20443;-87
2022/05/17 11:31:55;;;;;;;2.53;1.90;;;18.90;99.90;;;;;;5058493;28;20169;-91
2022/05/17 11:34:31;;;;;;;2.47;2.20;;;18.80;99.90;;;;;;5056327;28;20409;-92
2022/05/17 11:37:01;;;;;;;3.10;2.17;;;18.60;99.90;;;;;;5055606;28;20503;-90
2022/05/17 11:39:29;;;;;;;2.93;2.60;;;18.60;99.90;;;;;;5055586;28;20483;-90
2022/05/17 11:42:06;;;;;;;2.70;2.20;;;18.80;99.90;;;;;;5072046;28;20491;-90
2022/05/17 11:44:47;;;;;;;2.63;2.00;;;18.80;99.90;;;;;;5055693;28;20400;-90
2022/05/17 11:47:31;;;;;;;2.93;2.27;;;18.80;99.90;;;;;;5055420;28;20420;-90
2022/05/17 11:50:27;;;;;;;2.43;2.23;;;18.80;99.90;;;;;;5055023;28;20817;-90
2022/05/17 11:53:22;;;;;;;3.23;2.53;;;18.70;99.90;;;;;;5071949;28;20505;-90
2022/05/17 11:56:12;;;;;;;3.03;2.20;;;18.60;99.90;;;;;;5072287;28;20445;-92
2022/05/17 11:58:38;;;;;;;6.77;4.13;;;18.70;99.90;;;;;;5064584;28;20448;-92
2022/05/17 12:01:29;;;;;;;3.97;3.40;;;18.60;99.90;;;;;;5064785;28;20471;-86
2022/05/17 12:03:58;;;;;;;3.97;3.53;;;18.50;99.90;;;;;;5064065;28;20407;-91
2022/05/17 12:06:48;;;;;;;4.20;3.73;;;18.50;99.90;;;;;;5061730;28;20478;-90
2022/05/17 12:09:52;;;;;;;5.07;3.80;;;18.60;99.90;;;;;;5063024;28;20414;-87
2022/05/17 12:13:08;;;;;;;4.67;4.27;;;18.80;99.90;;;;;;5069086;28;20513;-89
2022/05/17 12:15:57;;;;;;;6.37;5.77;;;18.80;99.90;;;;;;5065564;28;20484;-88
2022/05/17 12:19:01;;;;;;;7.10;5.43;;;18.80;99.90;;;;;;5064322;28;20807;-91
2022/05/17 12:21:42;;;;;;;5.93;5.33;;;18.90;99.90;;;;;;5051377;28;20439;-91
2022/05/17 12:24:35;;;;;;;4.30;3.10;;;18.90;99.90;;;;;;5069030;28;20424;-88
2022/05/17 12:27:14;;;;;;;2.70;2.37;;;19.10;99.90;;;;;;5074120;28;20419;-86
2022/05/17 12:32:36;;;;;;;3.30;3.00;;;19.40;99.90;;;;;;5056357;28;20474;-87
2022/05/17 12:35:05;;;;;;;5.00;3.20;;;19.40;99.90;;;;;;5055208;28;20401;-86
2022/05/17 12:37:31;;;;;;;5.63;2.50;;;19.40;99.90;;;;;;5052622;28;20425;-86
2022/05/17 12:43:03;;;;;;;3.20;2.90;;;19.30;99.90;;;;;;5054899;28;20431;-88
2022/05/17 12:45:33;;;;;;;3.53;2.00;;;19.50;99.90;;;;;;5055267;28;20415;-88
2022/05/17 12:48:01;;;;;;;2.60;2.07;;;19.80;99.90;;;;;;5055807;28;20423;-88
2022/05/17 12:50:51;;;;;;;2.47;2.27;;;20.10;99.90;;;;;;5056866;28;20434;-90
2022/05/17 12:53:23;;;;;;;2.90;2.70;;;20.10;15.90;;;;;;5064167;28;20430;-89
2022/05/17 12:56:01;;;;;;;2.30;1.97;;;20.20;55.90;;;;;;5094990;28;20919;-88
2022/05/17 12:58:27;;;;;;;2.23;1.43;;;20.60;1.00;;;;;;5100594;28;20423;-93
2022/05/17 13:00:55;;;;;;;2.60;2.23;;;20.60;1.00;;;;;;5102961;28;20485;-94
2022/05/17 13:03:24;;;;;;;6.77;1.83;;;20.30;35.30;;;;;;5098298;28;20416;-91
2022/05/17 13:05:53;;;;;;;3.80;2.70;;;20.10;84.60;;;;;;5096418;28;20434;-92
2022/05/17 13:08:23;;;;;;;2.50;2.30;;;19.80;99.90;;;;;;5097966;28;20427;-89
2022/05/17 13:11:19;;;;;;;4.33;1.73;;;19.70;99.90;;;;;;5094585;28;20435;-92
2022/05/17 13:13:46;;;;;;;3.87;2.73;;;19.90;99.90;;;;;;5091132;28;20424;-87
2022/05/17 13:16:21;;;;;;;2.40;2.07;;;20.30;99.90;;;;;;5095831;28;20473;-91
2022/05/17 13:18:55;;;;;;;3.50;2.80;;;20.40;99.90;;;;;;5086192;28;20872;-88
2022/05/17 13:21:25;;;;;;;3.67;3.00;;;20.30;1.00;;;;;;5054007;28;20471;-94
2022/05/17 13:23:59;;;;;;;3.30;2.73;;;20.30;1.00;;;;;;5089222;28;20448;-92
2022/05/17 13:26:41;;;;;;;3.07;1.80;;;20.40;22.00;;;;;;5092216;28;20538;-94